Time;durP1;ratioP1;P1;durP2;ratioP2;P2;SDS_P1;SDS_P2;PMS_P1;PMS_P2;Temp;Humidity;BMP_temperature;BMP_pressure;BME280_temperature;BME280_humidity;BME280_pressure;Samples;Min_cycle;Max_cycle;Signal;HPM_P1;HPM_P2
2023/01/15 00:00:35;;;;;;;;;;;4.00;90.60;;;;;;5083623;28;19995;-87
2023/01/15 00:03:01;;;;;;;;;;;3.90;89.30;;;;;;5074726;28;19984;-87
2023/01/15 00:05:26;;;;;;;;;;;4.00;90.10;;;;;;5075014;28;19944;-87
2023/01/15 00:07:52;;;;;;;;;;;4.10;90.40;;;;;;5074670;28;20367;-87
2023/01/15 00:10:18;;;;;;;;;;;4.10;90.50;;;;;;5082739;28;20350;-87
2023/01/15 00:12:43;;;;;;;;;;;4.20;90.60;;;;;;5094572;28;20062;-87
2023/01/15 00:15:09;;;;;;;;;;;4.10;90.60;;;;;;5094772;28;19946;-87
2023/01/15 00:17:35;;;;;;;;;;;4.20;90.70;;;;;;5094682;28;19983;-87
2023/01/15 00:20:00;;;;;;;;;;;4.10;90.80;;;;;;5088093;28;19951;-87
2023/01/15 00:22:27;;;;;;;;;;;4.20;91.00;;;;;;5074305;28;19948;-87
2023/01/15 00:27:37;;;;;;;;;;;4.30;91.00;;;;;;5074311;28;20409;-87
2023/01/15 00:30:03;;;;;;;;;;;4.30;91.10;;;;;;5079580;28;20032;-88
2023/01/15 00:32:28;;;;;;;;;;;4.20;91.00;;;;;;5094081;28;20414;-88
2023/01/15 00:34:54;;;;;;;;;;;4.10;90.70;;;;;;5094406;28;19941;-87
2023/01/15 00:37:20;;;;;;;;;;;4.00;89.60;;;;;;5094284;28;19958;-87
2023/01/15 00:39:46;;;;;;;;;;;4.00;89.60;;;;;;5090845;28;20409;-87
2023/01/15 00:42:11;;;;;;;;;;;4.00;89.40;;;;;;5056047;28;20528;-87
2023/01/15 00:44:37;;;;;;;;;;;4.00;89.70;;;;;;5074214;28;19951;-87
2023/01/15 00:47:02;;;;;;;;;;;4.20;89.90;;;;;;5073874;28;20412;-88
2023/01/15 00:49:28;;;;;;;;;;;4.30;90.00;;;;;;5074193;28;20031;-87
2023/01/15 00:51:54;;;;;;;;;;;4.40;90.10;;;;;;5093737;28;19948;-88
2023/01/15 00:54:19;;;;;;;;;;;4.50;90.00;;;;;;5094045;28;20033;-87
2023/01/15 00:56:45;;;;;;;;;;;4.40;90.00;;;;;;5093894;28;19960;-87
2023/01/15 00:59:11;;;;;;;;;;;4.30;89.70;;;;;;5093931;28;20026;-87
2023/01/15 01:01:36;;;;;;;;;;;4.20;89.20;;;;;;5075269;28;20427;-87
2023/01/15 01:04:02;;;;;;;;;;;4.30;89.60;;;;;;5073538;28;19947;-87
2023/01/15 01:06:27;;;;;;;;;;;4.30;89.50;;;;;;5073599;28;19979;-87
2023/01/15 01:08:54;;;;;;;;;;;4.30;89.50;;;;;;5073498;28;19936;-87
2023/01/15 01:11:22;;;;;;;;;;;4.30;89.60;;;;;;5088631;28;19950;-87
2023/01/15 01:13:48;;;;;;;;;;;4.40;89.70;;;;;;5068878;22;19985;-87
2023/01/15 01:16:21;;;;;;;;;;;4.50;89.80;;;;;;5073333;28;20020;-87
2023/01/15 01:18:46;;;;;;;;;;;4.50;89.80;;;;;;5055294;28;19949;-88
2023/01/15 01:21:12;;;;;;;;;;;4.50;89.80;;;;;;5073109;28;20032;-87
2023/01/15 01:23:37;;;;;;;;;;;4.50;89.90;;;;;;5073331;28;19978;-87
2023/01/15 01:26:03;;;;;;;;;;;4.50;90.10;;;;;;5073274;28;20024;-87
2023/01/15 01:28:28;;;;;;;;;;;4.40;90.70;;;;;;5073291;28;20398;-88
2023/01/15 01:30:54;;;;;;;;;;;4.40;90.50;;;;;;5072372;28;20422;-88
2023/01/15 01:33:19;;;;;;;;;;;4.30;90.10;;;;;;5073195;28;20405;-87
2023/01/15 01:35:48;;;;;;;;;;;4.10;89.70;;;;;;5073102;28;20342;-88
2023/01/15 01:38:14;;;;;;;;;;;4.00;89.80;;;;;;5073171;28;19937;-87
2023/01/15 01:40:40;;;;;;;;;;;3.90;90.10;;;;;;5072918;28;19951;-87
2023/01/15 01:43:16;;;;;;;;;;;3.90;90.40;;;;;;5073307;28;19966;-87
2023/01/15 01:45:42;;;;;;;;;;;3.80;90.70;;;;;;5073081;28;19946;-87
2023/01/15 01:48:07;;;;;;;;;;;3.90;91.30;;;;;;5073060;28;19941;-87
2023/01/15 01:50:33;;;;;;;;;;;4.00;91.30;;;;;;5072599;28;20410;-87
2023/01/15 01:53:02;;;;;;;;;;;4.10;91.20;;;;;;5054656;28;20010;-87
2023/01/15 01:55:29;;;;;;;;;;;4.20;91.20;;;;;;5072876;28;19943;-87
2023/01/15 01:57:57;;;;;;;;;;;4.30;91.30;;;;;;5072868;28;19960;-87
2023/01/15 02:00:23;;;;;;;;;;;4.30;91.20;;;;;;5065889;28;19967;-87
2023/01/15 02:02:50;;;;;;;;;;;4.40;91.20;;;;;;5034961;28;20466;-87
2023/01/15 02:05:27;;;;;;;;;;;4.40;91.00;;;;;;5053090;28;19977;-88
2023/01/15 02:07:53;;;;;;;;;;;4.40;90.90;;;;;;5062708;28;19989;-88
2023/01/15 02:10:19;;;;;;;;;;;4.40;91.00;;;;;;5073104;28;20028;-87
2023/01/15 02:12:49;;;;;;;;;;;4.40;91.10;;;;;;5072816;28;20043;-88
2023/01/15 02:15:23;;;;;;;;;;;4.40;91.10;;;;;;5072761;28;20390;-88
2023/01/15 02:17:54;;;;;;;;;;;4.40;91.00;;;;;;5063197;28;20121;-87
2023/01/15 02:20:34;;;;;;;;;;;4.40;91.10;;;;;;5052673;28;20391;-87
2023/01/15 02:23:08;;;;;;;;;;;4.40;91.00;;;;;;5052977;28;20299;-88
2023/01/15 02:25:54;;;;;;;;;;;4.50;90.90;;;;;;5052667;28;19940;-87
2023/01/15 02:28:23;;;;;;;;;;;4.50;90.80;;;;;;5031157;28;20002;-87
2023/01/15 02:30:52;;;;;;;;;;;4.50;90.70;;;;;;5072605;28;19944;-86
2023/01/15 02:33:21;;;;;;;;;;;4.60;90.70;;;;;;5072458;28;19944;-87
2023/01/15 02:35:53;;;;;;;;;;;4.60;90.70;;;;;;5072452;28;19944;-87
2023/01/15 02:38:21;;;;;;;;;;;4.50;90.60;;;;;;5071153;28;19953;-87
2023/01/15 02:40:48;;;;;;;;;;;4.50;90.90;;;;;;5072547;28;19937;-87
2023/01/15 02:43:14;;;;;;;;;;;4.50;90.90;;;;;;5075851;28;20387;-88
2023/01/15 02:45:41;;;;;;;;;;;4.40;90.80;;;;;;5058332;28;19935;-88
2023/01/15 02:48:13;;;;;;;;;;;4.40;91.00;;;;;;5057989;28;20329;-87
2023/01/15 02:50:41;;;;;;;;;;;4.40;91.10;;;;;;5056212;28;20032;-88
2023/01/15 02:53:10;;;;;;;;;;;4.40;91.40;;;;;;5056062;28;20044;-88
2023/01/15 02:55:38;;;;;;;;;;;4.40;91.40;;;;;;5055932;28;19944;-87
2023/01/15 02:58:06;;;;;;;;;;;4.40;91.50;;;;;;5072922;28;20420;-88
2023/01/15 03:00:34;;;;;;;;;;;4.40;91.50;;;;;;5075968;28;19953;-88
2023/01/15 03:03:05;;;;;;;;;;;4.40;91.80;;;;;;5075957;28;19939;-88
2023/01/15 03:05:35;;;;;;;;;;;4.40;91.80;;;;;;5075855;28;19968;-87
2023/01/15 03:08:01;;;;;;;;;;;4.60;91.80;;;;;;5058923;28;20014;-88
2023/01/15 03:10:35;;;;;;;;;;;4.60;91.80;;;;;;5075442;28;20196;-87
2023/01/15 03:13:01;;;;;;;;;;;4.60;91.70;;;;;;5075531;28;19996;-87
2023/01/15 03:18:46;;;;;;;;;;;4.70;91.50;;;;;;4974626;28;20062;-88
2023/01/15 03:21:15;;;;;;;;;;;4.80;91.40;;;;;;5025212;28;20027;-87
2023/01/15 03:23:43;;;;;;;;;;;4.80;91.30;;;;;;5041745;28;19946;-88
2023/01/15 03:26:09;;;;;;;;;;;4.80;91.00;;;;;;5055659;28;19962;-88
2023/01/15 03:28:35;;;;;;;;;;;4.90;90.80;;;;;;5037622;28;20394;-87
2023/01/15 03:31:01;;;;;;;;;;;4.90;90.60;;;;;;5055406;28;19949;-87
2023/01/15 03:33:28;;;;;;;;;;;4.90;90.40;;;;;;5055364;28;19937;-87
2023/01/15 03:35:57;;;;;;;;;;;5.00;90.20;;;;;;5055188;28;19945;-88
2023/01/15 03:38:25;;;;;;;;;;;5.00;90.00;;;;;;5074232;28;19951;-88
2023/01/15 03:41:02;;;;;;;;;;;5.00;90.00;;;;;;5075264;28;19984;-88
2023/01/15 03:43:51;;;;;;;;;;;5.00;89.80;;;;;;5075168;28;19941;-87
2023/01/15 03:46:22;;;;;;;;;;;5.00;89.60;;;;;;5026337;28;20403;-87
2023/01/15 03:49:20;;;;;;;;;;;5.00;89.30;;;;;;5055095;28;20040;-87
2023/01/15 03:51:55;;;;;;;;;;;5.00;89.40;;;;;;5021143;28;20407;-88
2023/01/15 03:54:25;;;;;;;;;;;4.90;89.40;;;;;;5036082;28;20417;-87
2023/01/15 03:56:54;;;;;;;;;;;4.90;89.50;;;;;;5060565;28;19962;-87
2023/01/15 03:59:27;;;;;;;;;;;4.90;89.80;;;;;;5074846;28;19947;-88
2023/01/15 04:01:53;;;;;;;;;;;4.80;89.80;;;;;;5074800;28;20394;-87
2023/01/15 04:04:19;;;;;;;;;;;4.80;89.90;;;;;;5075011;28;19948;-87
2023/01/15 04:06:45;;;;;;;;;;;4.70;89.80;;;;;;5069542;28;19971;-88
2023/01/15 04:09:12;;;;;;;;;;;4.70;90.00;;;;;;5054718;28;20099;-87
2023/01/15 04:11:37;;;;;;;;;;;4.70;90.00;;;;;;5054647;28;19938;-87
2023/01/15 04:14:03;;;;;;;;;;;4.70;90.20;;;;;;5054372;28;19973;-87
2023/01/15 04:16:30;;;;;;;;;;;4.70;90.20;;;;;;5056670;28;19967;-87
2023/01/15 04:18:56;;;;;;;;;;;4.70;90.20;;;;;;5074482;28;19964;-88
2023/01/15 04:21:21;;;;;;;;;;;4.70;90.20;;;;;;5074372;28;19942;-88
2023/01/15 04:23:47;;;;;;;;;;;4.70;89.90;;;;;;5056404;28;19941;-88
2023/01/15 04:26:13;;;;;;;;;;;4.70;89.70;;;;;;5074043;28;19938;-87
2023/01/15 04:28:39;;;;;;;;;;;4.80;89.70;;;;;;5034367;28;19966;-87
2023/01/15 04:31:04;;;;;;;;;;;4.90;89.70;;;;;;5034322;28;19938;-87
2023/01/15 04:33:30;;;;;;;;;;;4.90;89.80;;;;;;5034574;28;19953;-88
2023/01/15 04:35:58;;;;;;;;;;;4.80;89.70;;;;;;5034150;28;19939;-88
2023/01/15 04:38:23;;;;;;;;;;;4.80;89.80;;;;;;5069640;28;19947;-87
2023/01/15 04:46:19;;;;;;;;;;;4.80;90.60;;;;;;5073479;28;19947;-87
2023/01/15 04:48:45;;;;;;;;;;;4.80;90.90;;;;;;5053891;28;19944;-87
2023/01/15 04:51:10;;;;;;;;;;;4.90;90.90;;;;;;5053854;28;19940;-88
2023/01/15 04:53:36;;;;;;;;;;;4.90;90.80;;;;;;5053759;28;20058;-88
2023/01/15 04:56:02;;;;;;;;;;;4.90;90.90;;;;;;5053230;28;19951;-88
2023/01/15 04:58:28;;;;;;;;;;;4.90;90.90;;;;;;5053357;28;19991;-88
2023/01/15 05:00:54;;;;;;;;;;;4.90;90.80;;;;;;5053694;28;19978;-88
2023/01/15 05:03:19;;;;;;;;;;;4.90;90.70;;;;;;5053687;28;19935;-88
2023/01/15 05:05:45;;;;;;;;;;;4.80;90.70;;;;;;5053490;28;19941;-88
2023/01/15 05:08:10;;;;;;;;;;;4.80;90.60;;;;;;5053687;28;20300;-88
2023/01/15 05:10:36;;;;;;;;;;;4.70;90.50;;;;;;5053544;28;20445;-87
2023/01/15 05:13:01;;;;;;;;;;;4.70;90.90;;;;;;5053299;28;19975;-88
2023/01/15 05:15:27;;;;;;;;;;;4.70;91.00;;;;;;5053410;28;19944;-87
2023/01/15 05:17:52;;;;;;;;;;;4.70;91.50;;;;;;5065738;28;20020;-87
2023/01/15 05:20:18;;;;;;;;;;;4.60;91.90;;;;;;5073409;28;19983;-87
2023/01/15 05:22:43;;;;;;;;;;;4.70;92.00;;;;;;5073343;28;19934;-87
2023/01/15 05:25:09;;;;;;;;;;;4.60;92.00;;;;;;5073340;28;20068;-87
2023/01/15 05:27:34;;;;;;;;;;;4.70;91.90;;;;;;5063018;28;20044;-88
2023/01/15 05:30:00;;;;;;;;;;;4.70;91.90;;;;;;5053292;28;19942;-88
2023/01/15 05:32:26;;;;;;;;;;;4.80;91.70;;;;;;5053156;28;19940;-87
2023/01/15 05:34:51;;;;;;;;;;;4.70;91.40;;;;;;5053127;28;20028;-87
2023/01/15 05:37:17;;;;;;;;;;;4.70;91.40;;;;;;5060086;28;20008;-87
2023/01/15 05:39:42;;;;;;;;;;;4.80;91.40;;;;;;5055193;28;19945;-88
2023/01/15 05:42:08;;;;;;;;;;;4.80;91.20;;;;;;5073156;28;20343;-87
2023/01/15 05:44:33;;;;;;;;;;;4.90;91.00;;;;;;5073056;28;20486;-88
2023/01/15 05:47:04;;;;;;;;;;;4.90;90.60;;;;;;5068209;28;20026;-87
2023/01/15 05:49:30;;;;;;;;;;;5.00;90.40;;;;;;5035146;28;19964;-88
2023/01/15 05:51:56;;;;;;;;;;;5.00;90.30;;;;;;5052904;28;19940;-87
2023/01/15 05:54:23;;;;;;;;;;;5.00;89.90;;;;;;5052909;28;19938;-88
2023/01/15 05:56:49;;;;;;;;;;;5.00;89.90;;;;;;5055620;28;20022;-87
2023/01/15 05:59:15;;;;;;;;;;;5.00;89.90;;;;;;5072534;28;19945;-87
2023/01/15 06:01:41;;;;;;;;;;;5.00;90.00;;;;;;5072894;28;19982;-87
2023/01/15 06:04:07;;;;;;;;;;;5.10;90.10;;;;;;5072861;28;20334;-87
2023/01/15 06:06:33;;;;;;;;;;;5.20;89.80;;;;;;5064171;28;20011;-87
2023/01/15 06:08:58;;;;;;;;;;;5.20;89.30;;;;;;5053040;28;19947;-87
2023/01/15 06:11:24;;;;;;;;;;;5.20;89.20;;;;;;5052718;28;19991;-88
2023/01/15 06:13:49;;;;;;;;;;;5.20;89.50;;;;;;5052493;28;19984;-88
2023/01/15 06:16:15;;;;;;;;;;;5.20;89.50;;;;;;5058344;28;19976;-88
2023/01/15 06:18:41;;;;;;;;;;;5.20;89.40;;;;;;5076459;28;19952;-88
2023/01/15 06:21:07;;;;;;;;;;;5.20;89.40;;;;;;5076727;28;19966;-88
2023/01/15 06:23:36;;;;;;;;;;;5.20;89.60;;;;;;5076639;28;19948;-88
2023/01/15 06:26:03;;;;;;;;;;;5.10;89.90;;;;;;5072679;28;20418;-88
2023/01/15 06:28:29;;;;;;;;;;;5.10;90.30;;;;;;5056592;28;19993;-88
2023/01/15 06:30:55;;;;;;;;;;;5.10;90.20;;;;;;5056538;28;19935;-87
2023/01/15 06:33:20;;;;;;;;;;;5.00;90.10;;;;;;5056478;28;19946;-87
2023/01/15 06:35:46;;;;;;;;;;;5.00;90.80;;;;;;5064600;28;19948;-88
2023/01/15 06:38:11;;;;;;;;;;;5.00;91.00;;;;;;5076290;28;20010;-88
2023/01/15 06:40:37;;;;;;;;;;;5.00;90.90;;;;;;5076319;28;19938;-87
2023/01/15 06:48:32;;;;;;;;;;;5.10;90.70;;;;;;5056516;28;19941;-87
2023/01/15 06:50:58;;;;;;;;;;;5.00;90.80;;;;;;5070951;28;20132;-87
2023/01/15 06:53:23;;;;;;;;;;;5.00;90.90;;;;;;5075659;28;19963;-88
2023/01/15 06:55:49;;;;;;;;;;;5.10;90.80;;;;;;5075902;28;19965;-87
2023/01/15 06:58:15;;;;;;;;;;;5.10;90.70;;;;;;5076212;28;19957;-88
2023/01/15 07:00:45;;;;;;;;;;;5.10;90.60;;;;;;5063656;28;19951;-88
2023/01/15 07:03:13;;;;;;;;;;;5.10;90.50;;;;;;5055824;28;19949;-87
2023/01/15 07:05:38;;;;;;;;;;;5.20;90.50;;;;;;5055921;28;19936;-87
2023/01/15 07:08:04;;;;;;;;;;;5.30;90.40;;;;;;5055861;28;19992;-87
2023/01/15 07:10:30;;;;;;;;;;;5.40;90.00;;;;;;5056040;28;20006;-87
2023/01/15 07:12:55;;;;;;;;;;;5.40;89.80;;;;;;5055568;28;20448;-87
2023/01/15 07:15:21;;;;;;;;;;;5.30;90.00;;;;;;5055714;28;20351;-88
2023/01/15 07:17:46;;;;;;;;;;;5.30;90.20;;;;;;5055598;28;20299;-87
2023/01/15 07:20:12;;;;;;;;;;;5.40;90.20;;;;;;5062593;28;20342;-87
2023/01/15 07:22:37;;;;;;;;;;;5.40;90.20;;;;;;5075244;28;20325;-87
2023/01/15 07:25:03;;;;;;;;;;;5.30;90.10;;;;;;5075555;28;20315;-87
2023/01/15 07:27:28;;;;;;;;;;;5.30;90.40;;;;;;5075002;28;20030;-87
2023/01/15 07:29:54;;;;;;;;;;;5.30;90.30;;;;;;5069486;28;19952;-88
2023/01/15 07:32:20;;;;;;;;;;;5.40;90.00;;;;;;5055636;28;19941;-88
2023/01/15 07:34:45;;;;;;;;;;;5.30;89.90;;;;;;5055364;28;20397;-87
2023/01/15 07:37:11;;;;;;;;;;;5.30;90.10;;;;;;5055544;28;19957;-87
2023/01/15 07:39:36;;;;;;;;;;;5.20;90.30;;;;;;5057244;28;20332;-87
2023/01/15 07:50:15;;;;;;;;;;;5.10;90.80;;;;;;5067700;28;19950;-87
2023/01/15 07:52:41;;;;;;;;;;;5.30;90.80;;;;;;5055204;28;19962;-87
2023/01/15 07:55:08;;;;;;;;;;;5.40;90.80;;;;;;5054867;28;20289;-87
2023/01/15 07:57:35;;;;;;;;;;;5.50;90.80;;;;;;5055062;28;19961;-87
2023/01/15 08:00:00;;;;;;;;;;;5.60;90.90;;;;;;5059771;28;19941;-87
2023/01/15 08:02:26;;;;;;;;;;;5.60;91.20;;;;;;5074835;28;19943;-87
2023/01/15 08:04:52;;;;;;;;;;;5.70;91.50;;;;;;5074778;28;19941;-87
2023/01/15 08:07:17;;;;;;;;;;;5.80;91.50;;;;;;5074686;28;20027;-87
2023/01/15 08:09:43;;;;;;;;;;;5.90;91.40;;;;;;5071777;28;19956;-87
2023/01/15 08:17:37;;;;;;;;;;;6.10;90.40;;;;;;5054794;28;20007;-87
2023/01/15 08:20:04;;;;;;;;;;;6.10;90.20;;;;;;5059813;28;19943;-88
2023/01/15 08:22:29;;;;;;;;;;;6.10;90.10;;;;;;5074336;28;19948;-87
2023/01/15 08:24:55;;;;;;;;;;;6.10;90.20;;;;;;5074350;28;19938;-88
2023/01/15 08:27:21;;;;;;;;;;;6.00;90.50;;;;;;5074268;28;20308;-88
2023/01/15 08:29:46;;;;;;;;;;;6.20;90.40;;;;;;5071404;28;19962;-87
2023/01/15 08:32:12;;;;;;;;;;;6.20;89.90;;;;;;5054225;28;19946;-87
2023/01/15 08:34:38;;;;;;;;;;;6.30;89.30;;;;;;5054211;28;19939;-87
2023/01/15 08:37:03;;;;;;;;;;;6.30;89.00;;;;;;5054073;28;19984;-88
2023/01/15 08:39:29;;;;;;;;;;;6.20;88.80;;;;;;5053682;28;20408;-88
2023/01/15 08:41:55;;;;;;;;;;;6.10;89.00;;;;;;5073474;28;19940;-87
2023/01/15 08:44:22;;;;;;;;;;;6.10;89.20;;;;;;5074010;28;20027;-88
2023/01/15 08:46:48;;;;;;;;;;;6.00;89.30;;;;;;5073900;28;19972;-87
2023/01/15 08:49:13;;;;;;;;;;;6.00;89.60;;;;;;5073891;28;20416;-88
2023/01/15 08:51:39;;;;;;;;;;;5.90;90.10;;;;;;5056024;28;19940;-88
2023/01/15 08:54:04;;;;;;;;;;;5.90;90.60;;;;;;5053726;28;19957;-87
2023/01/15 08:56:30;;;;;;;;;;;5.90;90.70;;;;;;5053653;28;20024;-87
2023/01/15 08:58:55;;;;;;;;;;;6.00;90.90;;;;;;5053781;28;19938;-87
2023/01/15 09:01:21;;;;;;;;;;;6.20;90.50;;;;;;5068464;28;20411;-87
2023/01/15 09:03:46;;;;;;;;;;;6.30;90.10;;;;;;5073663;28;19943;-88
2023/01/15 09:06:12;;;;;;;;;;;6.40;89.80;;;;;;5073578;28;19937;-88
2023/01/15 09:08:38;;;;;;;;;;;6.50;89.30;;;;;;5073530;28;20041;-87
2023/01/15 09:11:04;;;;;;;;;;;6.60;88.80;;;;;;5060858;28;19949;-87
2023/01/15 09:13:30;;;;;;;;;;;6.70;88.60;;;;;;5071715;22;19982;-87
2023/01/15 09:15:59;;;;;;;;;;;6.70;88.70;;;;;;5073950;28;20277;-88
2023/01/15 09:18:25;;;;;;;;;;;6.70;88.80;;;;;;5073386;28;19950;-87
2023/01/15 09:20:52;;;;;;;;;;;6.70;89.00;;;;;;5072357;28;21295;-87
2023/01/15 09:23:17;;;;;;;;;;;6.70;89.20;;;;;;5073365;28;19935;-88
2023/01/15 09:25:53;;;;;;;;;;;6.70;89.30;;;;;;5073149;28;19992;-87
2023/01/15 09:28:19;;;;;;;;;;;6.70;89.00;;;;;;5055296;28;20436;-87
2023/01/15 09:30:44;;;;;;;;;;;6.80;88.60;;;;;;5073033;28;19993;-87
2023/01/15 09:33:10;;;;;;;;;;;6.80;88.40;;;;;;5073264;28;19945;-88
2023/01/15 09:35:36;;;;;;;;;;;6.80;88.20;;;;;;5073121;28;19964;-88
2023/01/15 09:38:01;;;;;;;;;;;6.80;87.70;;;;;;5073084;28;19954;-88
2023/01/15 09:40:38;;;;;;;;;;;6.90;87.80;;;;;;5073154;28;19952;-88
2023/01/15 09:43:08;;;;;;;;;;;7.00;87.90;;;;;;5073120;28;20354;-88
2023/01/15 09:45:38;;;;;;;;;;;7.10;88.00;;;;;;5073032;28;19942;-88
2023/01/15 09:48:08;;;;;;;;;;;7.10;88.10;;;;;;5072587;28;19949;-88
2023/01/15 09:50:47;;;;;;;;;;;7.20;88.10;;;;;;5054488;28;20374;-88
2023/01/15 09:53:33;;;;;;;;;;;7.30;87.90;;;;;;5054711;28;19961;-88
2023/01/15 09:56:00;;;;;;;;;;;7.40;87.70;;;;;;5058395;28;19979;-88
2023/01/15 09:58:34;;;;;;;;;;;7.40;87.30;;;;;;5072950;28;19946;-88
2023/01/15 10:00:59;;;;;;;;;;;7.50;87.10;;;;;;5072633;28;20037;-87
2023/01/15 10:03:28;;;;;;;;;;;7.40;87.20;;;;;;5073128;28;20036;-88
2023/01/15 10:06:12;;;;;;;;;;;7.40;87.50;;;;;;5072873;28;19943;-88
2023/01/15 10:08:47;;;;;;;;;;;7.40;87.80;;;;;;5072895;28;20463;-88
2023/01/15 10:11:13;;;;;;;;;;;7.40;88.00;;;;;;5072598;28;19951;-88
2023/01/15 10:13:49;;;;;;;;;;;7.40;88.10;;;;;;5072617;28;20453;-88
2023/01/15 10:16:19;;;;;;;;;;;7.50;87.70;;;;;;5072762;28;19941;-88
2023/01/15 10:18:45;;;;;;;;;;;7.60;87.40;;;;;;5072774;28;19937;-88
2023/01/15 10:21:18;;;;;;;;;;;7.70;86.90;;;;;;5072498;28;20430;-88
2023/01/15 10:23:44;;;;;;;;;;;7.70;86.50;;;;;;5072719;28;19990;-88
2023/01/15 10:26:17;;;;;;;;;;;7.80;85.70;;;;;;5072968;28;19941;-87
2023/01/15 10:28:57;;;;;;;;;;;7.90;84.80;;;;;;5072683;28;19939;-88
2023/01/15 10:31:28;;;;;;;;;;;7.90;84.50;;;;;;5072672;28;19946;-88
2023/01/15 10:34:14;;;;;;;;;;;7.90;84.20;;;;;;5072603;28;20013;-88
2023/01/15 10:36:45;;;;;;;;;;;8.00;83.30;;;;;;5031126;28;20060;-88
2023/01/15 10:39:35;;;;;;;;;;;8.00;83.30;;;;;;5072560;28;20039;-88
2023/01/15 10:42:19;;;;;;;;;;;8.10;82.60;;;;;;5034645;28;19992;-88
2023/01/15 10:44:53;;;;;;;;;;;8.10;84.10;;;;;;5052466;28;19972;-88
2023/01/15 10:47:21;;;;;;;;;;;8.10;84.60;;;;;;5052488;28;19944;-87
2023/01/15 10:49:48;;;;;;;;;;;8.10;84.70;;;;;;5055577;28;20027;-87
2023/01/15 10:52:24;;;;;;;;;;;8.20;84.70;;;;;;5072622;28;19966;-88
2023/01/15 10:55:02;;;;;;;;;;;8.20;84.70;;;;;;5072352;28;19941;-87
2023/01/15 10:57:49;;;;;;;;;;;8.20;84.70;;;;;;5072306;28;20413;-88
2023/01/15 11:00:15;;;;;;;;;;;8.10;85.10;;;;;;5071802;28;19942;-88
2023/01/15 11:03:13;;;;;;;;;;;8.10;85.20;;;;;;5073292;28;19942;-88
2023/01/15 11:05:39;;;;;;;;;;;8.10;85.20;;;;;;5046726;28;20308;-88
2023/01/15 11:08:06;;;;;;;;;;;8.20;84.70;;;;;;5075879;28;19995;-88
2023/01/15 11:10:32;;;;;;;;;;;8.20;84.30;;;;;;5075604;28;20451;-87
2023/01/15 11:21:31;;;;;;;;;;;8.20;83.60;;;;;;5075712;28;20101;-88
2023/01/15 11:23:58;;;;;;;;;;;8.20;83.40;;;;;;5075561;28;20424;-87
2023/01/15 11:26:29;;;;;;;;;;;8.30;83.30;;;;;;5075584;28;20017;-87
2023/01/15 11:28:55;;;;;;;;;;;8.30;83.40;;;;;;5075482;28;19939;-88
2023/01/15 11:31:21;;;;;;;;;;;8.30;83.60;;;;;;5075254;28;20378;-87
2023/01/15 11:34:00;;;;;;;;;;;8.40;83.30;;;;;;5075217;28;19985;-88
2023/01/15 11:36:26;;;;;;;;;;;8.30;83.20;;;;;;5075180;28;19969;-87
2023/01/15 11:38:52;;;;;;;;;;;8.30;83.50;;;;;;5075290;28;19938;-87
2023/01/15 11:52:32;;;;;;;;;;;8.20;84.40;;;;;;5075032;28;20013;-87
2023/01/15 11:54:59;;;;;;;;;;;8.20;84.70;;;;;;5074909;28;19935;-87
2023/01/15 11:57:29;;;;;;;;;;;8.40;84.60;;;;;;5074781;28;19956;-88
2023/01/15 11:59:56;;;;;;;;;;;8.40;84.20;;;;;;5074755;28;19999;-87
2023/01/15 12:02:45;;;;;;;;;;;8.40;83.80;;;;;;5074904;28;19943;-88
2023/01/15 12:05:18;;;;;;;;;;;8.40;83.20;;;;;;5074876;28;19943;-88
2023/01/15 12:07:44;;;;;;;;;;;8.40;83.20;;;;;;5074820;28;20249;-88
2023/01/15 12:10:11;;;;;;;;;;;8.40;83.10;;;;;;5074484;28;19937;-88
2023/01/15 12:12:42;;;;;;;;;;;8.50;82.90;;;;;;5074574;28;20064;-88
2023/01/15 12:15:19;;;;;;;;;;;8.50;83.40;;;;;;5073800;28;19943;-88
2023/01/15 12:18:03;;;;;;;;;;;8.60;83.30;;;;;;5074457;28;19959;-88
2023/01/15 12:20:33;;;;;;;;;;;8.70;82.80;;;;;;5074276;28;19946;-88
2023/01/15 12:23:10;;;;;;;;;;;8.70;82.30;;;;;;5074214;28;19941;-88
2023/01/15 12:25:39;;;;;;;;;;;8.70;82.40;;;;;;5054392;28;20031;-87
2023/01/15 12:28:08;;;;;;;;;;;8.70;82.30;;;;;;5054379;28;19963;-87
2023/01/15 12:30:42;;;;;;;;;;;8.70;82.30;;;;;;5061616;28;19953;-87
2023/01/15 12:33:14;;;;;;;;;;;8.60;82.90;;;;;;5074246;28;19942;-87
2023/01/15 12:35:45;;;;;;;;;;;8.60;82.90;;;;;;5074136;28;20000;-88
2023/01/15 12:38:14;;;;;;;;;;;8.60;83.20;;;;;;5074100;28;20412;-87
2023/01/15 12:40:40;;;;;;;;;;;8.60;83.10;;;;;;5073878;28;19952;-88
2023/01/15 12:45:56;;;;;;;;;;;8.50;84.10;;;;;;5074311;28;19944;-87
2023/01/15 12:48:30;;;;;;;;;;;8.50;84.40;;;;;;5073983;28;19945;-88
2023/01/15 12:50:58;;;;;;;;;;;8.40;84.70;;;;;;5073644;28;19955;-88
2023/01/15 12:53:23;;;;;;;;;;;8.40;84.50;;;;;;5055746;28;19972;-88
2023/01/15 12:55:58;;;;;;;;;;;8.40;84.40;;;;;;5073687;28;20305;-88
2023/01/15 12:58:39;;;;;;;;;;;8.30;84.70;;;;;;5073539;28;20415;-88
2023/01/15 13:01:30;;;;;;;;;;;8.30;84.70;;;;;;5053751;28;19945;-88
2023/01/15 13:03:55;;;;;;;;;;;8.30;84.90;;;;;;5053673;28;20440;-88
2023/01/15 13:06:24;;;;;;;;;;;8.20;85.20;;;;;;5053680;28;19938;-88
2023/01/15 13:08:54;;;;;;;;;;;8.20;85.70;;;;;;5056991;28;19946;-88
2023/01/15 13:11:20;;;;;;;;;;;8.20;86.00;;;;;;5073563;28;19939;-88
2023/01/15 13:13:58;;;;;;;;;;;8.20;86.50;;;;;;5073250;28;19984;-88
2023/01/15 13:16:31;;;;;;;;;;;8.20;86.80;;;;;;5073399;28;19945;-88
2023/01/15 13:18:57;;;;;;;;;;;8.20;86.80;;;;;;5073186;28;19972;-87
2023/01/15 13:21:24;;;;;;;;;;;8.20;86.80;;;;;;5073363;28;20022;-88
2023/01/15 13:24:05;;;;;;;;;;;8.10;87.00;;;;;;5073337;28;20026;-88
2023/01/15 13:26:40;;;;;;;;;;;8.20;87.20;;;;;;5073280;28;20031;-88
2023/01/15 13:29:09;;;;;;;;;;;8.00;87.70;;;;;;5073127;28;19947;-88
2023/01/15 13:31:34;;;;;;;;;;;8.00;88.70;;;;;;5073245;28;20038;-88
2023/01/15 13:34:03;;;;;;;;;;;7.90;88.80;;;;;;5073241;28;20036;-88
2023/01/15 13:36:32;;;;;;;;;;;7.90;89.20;;;;;;5055149;28;19983;-88
2023/01/15 13:39:00;;;;;;;;;;;7.90;89.50;;;;;;5072948;28;19962;-88
2023/01/15 13:44:15;;;;;;;;;;;7.90;89.30;;;;;;5073172;28;20435;-87
2023/01/15 13:46:42;;;;;;;;;;;7.90;89.30;;;;;;5073123;28;19976;-88
2023/01/15 13:49:23;;;;;;;;;;;7.90;89.40;;;;;;5072827;28;20427;-87
2023/01/15 13:51:48;;;;;;;;;;;7.80;89.40;;;;;;5073019;28;20407;-87
2023/01/15 13:54:16;;;;;;;;;;;7.70;89.70;;;;;;5073306;28;19951;-88
2023/01/15 13:56:43;;;;;;;;;;;7.80;89.80;;;;;;5072906;28;19961;-88
2023/01/15 13:59:27;;;;;;;;;;;7.80;90.10;;;;;;5072618;28;20410;-88
2023/01/15 14:01:53;;;;;;;;;;;7.80;90.20;;;;;;5072951;28;19948;-87
2023/01/15 14:04:31;;;;;;;;;;;7.70;90.50;;;;;;5072964;28;19943;-88
2023/01/15 14:06:57;;;;;;;;;;;7.60;90.60;;;;;;5072936;28;19940;-87
2023/01/15 14:09:22;;;;;;;;;;;7.70;90.90;;;;;;5072663;28;20312;-88
2023/01/15 14:11:54;;;;;;;;;;;7.80;90.70;;;;;;5072882;28;19937;-87
2023/01/15 14:14:22;;;;;;;;;;;7.90;90.50;;;;;;5072702;28;20034;-87
2023/01/15 14:16:54;;;;;;;;;;;7.70;90.70;;;;;;5072763;28;19966;-88
2023/01/15 14:19:25;;;;;;;;;;;7.80;90.60;;;;;;5072521;28;20032;-87
2023/01/15 14:21:56;;;;;;;;;;;7.80;90.40;;;;;;5072665;28;19948;-88
2023/01/15 14:24:22;;;;;;;;;;;7.80;90.30;;;;;;5072796;28;19941;-88
2023/01/15 14:27:06;;;;;;;;;;;7.80;90.40;;;;;;5072740;28;20407;-87
2023/01/15 14:29:55;;;;;;;;;;;7.80;90.20;;;;;;5072387;28;19950;-88
2023/01/15 14:32:47;;;;;;;;;;;7.80;90.30;;;;;;5072740;28;19948;-87
2023/01/15 14:35:15;;;;;;;;;;;7.70;90.50;;;;;;5069420;28;19965;-88
2023/01/15 14:38:02;;;;;;;;;;;7.60;90.80;;;;;;5055502;28;19959;-87
2023/01/15 14:40:30;;;;;;;;;;;7.70;91.00;;;;;;5076223;28;19955;-88
2023/01/15 14:43:01;;;;;;;;;;;7.60;91.00;;;;;;5076360;28;20384;-87
2023/01/15 14:45:28;;;;;;;;;;;7.60;91.10;;;;;;5076318;28;20006;-87
2023/01/15 14:47:55;;;;;;;;;;;7.50;91.20;;;;;;5076462;28;19945;-88
2023/01/15 14:50:23;;;;;;;;;;;7.40;91.40;;;;;;5075167;28;19950;-87
2023/01/15 14:52:53;;;;;;;;;;;7.40;91.60;;;;;;5075794;28;19964;-87
2023/01/15 14:55:19;;;;;;;;;;;7.40;91.90;;;;;;5076027;28;19936;-88
2023/01/15 14:57:49;;;;;;;;;;;7.30;92.20;;;;;;5076024;28;19968;-88
2023/01/15 15:00:17;;;;;;;;;;;7.30;92.30;;;;;;5075830;28;19950;-88
2023/01/15 15:02:43;;;;;;;;;;;7.40;92.40;;;;;;5076007;28;19939;-88
2023/01/15 15:05:13;;;;;;;;;;;7.20;92.80;;;;;;5075971;28;19935;-88
2023/01/15 15:07:42;;;;;;;;;;;7.30;92.80;;;;;;5075883;28;19940;-88
2023/01/15 15:10:16;;;;;;;;;;;7.30;92.90;;;;;;5075601;28;19990;-87
2023/01/15 15:13:04;;;;;;;;;;;7.40;92.80;;;;;;5075567;28;20311;-88
2023/01/15 15:15:35;;;;;;;;;;;7.40;92.60;;;;;;5076077;28;19969;-87
2023/01/15 15:18:10;;;;;;;;;;;7.30;92.50;;;;;;5075632;28;20319;-87
2023/01/15 15:20:50;;;;;;;;;;;7.30;92.50;;;;;;5075477;28;19951;-88
2023/01/15 15:23:19;;;;;;;;;;;7.30;92.50;;;;;;5075660;28;19937;-87
2023/01/15 15:25:50;;;;;;;;;;;7.30;92.40;;;;;;5075546;28;19948;-88
2023/01/15 15:28:16;;;;;;;;;;;7.30;92.40;;;;;;5075585;28;19987;-87
2023/01/15 15:30:43;;;;;;;;;;;7.30;92.40;;;;;;5075245;28;19949;-87
2023/01/15 15:33:13;;;;;;;;;;;7.20;92.40;;;;;;5075521;28;19939;-87
2023/01/15 15:35:40;;;;;;;;;;;7.30;92.50;;;;;;5075426;28;20458;-87